Monterey, CA

8:32 PM PST on December 20, 2014 (GMT -0800)
Watsonville Municipal | Change Station
CLOSE
Current Station
Airport
Location: Watsonville,
Elevation: 161 ft
Nearby Weather Stations

Elev 161 ft 36.94 °N, 121.79 °W | Updated 39 minutes ago

Overcast
Overcast
60 °F
Feels Like 60 °F
N
0
Wind Variable Wind from North

Today
High -- | Low -- °F
--% Chance of Precip.
Yesterday
High -- | Low -- °F
Precip. -- in
7:15 AM 4:54 PM
Waning Crescent, 1% visible
Pressure 30.26 in
Visibility 10.0 miles
Clouds Overcast 4200 ft
Dew Point 57 °F
Humidity 90%
Rainfall 0.46 in
Snow Depth Not available.
UV 0 out of 12
Pollen 4.00 out of 12
Air Quality Not available.
Flu Activity Not available.
METAR KWVI 210353Z AUTO 00000KT 10SM OVC042 16/14 A3026 RMK AO2 SLP247 T01560139

More Conditions Fewer Conditions

Pressure 30.26 in
Visibility 10.0 miles
Clouds Overcast 4200 ft
Dew Point 57 °F
Humidity 90%
Rainfall 0.46 in
Snow Depth Not available.
UV 0 out of 12
Pollen 4.00 out of 12
Air Quality Not available.
Flu Activity Not available.
METAR KWVI 210353Z AUTO 00000KT 10SM OVC042 16/14 A3026 RMK AO2 SLP247 T01560139

More Conditions Fewer Conditions

10-Day Weather Forecast

Almanac

Astronomy

Dec. 20, 2014 Rise Set
Actual Time
Civil Twilight
Nautical Twilight
Astronomical Twilight
Moon
Length of Visible Light
Length of Day
Tomorrow will be .
, % of the Moon is Illuminated

Today's Extremes

State Highs State Lows

Community

WunderPhotos

Upload Photos

1,779,358 photos uploaded!

WunderBlogs® & News

Nearby

Air Quality

  Air Quality AQ Index Pollutant
Not available.

Snow Depth

Station Depth Elevation

Earthquake Activity

City Distance Mag. Time & Date
Minimum magnitude displayed is 2.5.

Coastal Water Temperatures

Place Temperature

Nearby Weather Stations